sensor_id;sensor_type;location;lat;lon;timestamp;temperature;humidity
68217;DHT22;55037;52.354;4.992;2022-10-31T00:01:24;13.40;90.30
68217;DHT22;55037;52.354;4.992;2022-10-31T00:03:52;13.30;90.30
68217;DHT22;55037;52.354;4.992;2022-10-31T00:06:20;13.40;90.30
68217;DHT22;55037;52.354;4.992;2022-10-31T00:08:55;13.30;90.20
68217;DHT22;55037;52.354;4.992;2022-10-31T00:11:23;13.40;90.20
68217;DHT22;55037;52.354;4.992;2022-10-31T00:13:51;13.40;90.20
68217;DHT22;55037;52.354;4.992;2022-10-31T00:16:23;13.30;90.10
68217;DHT22;55037;52.354;4.992;2022-10-31T00:18:53;13.30;90.20
68217;DHT22;55037;52.354;4.992;2022-10-31T00:21:21;13.30;90.60
68217;DHT22;55037;52.354;4.992;2022-10-31T00:23:49;13.30;90.20
68217;DHT22;55037;52.354;4.992;2022-10-31T00:26:16;13.40;90.20
68217;DHT22;55037;52.354;4.992;2022-10-31T00:28:43;13.30;90.30
68217;DHT22;55037;52.354;4.992;2022-10-31T00:31:11;13.40;90.30
68217;DHT22;55037;52.354;4.992;2022-10-31T00:33:39;13.40;90.20
68217;DHT22;55037;52.354;4.992;2022-10-31T00:36:10;13.40;90.10
68217;DHT22;55037;52.354;4.992;2022-10-31T00:38:40;13.40;90.10
68217;DHT22;55037;52.354;4.992;2022-10-31T00:41:07;13.50;90.10
68217;DHT22;55037;52.354;4.992;2022-10-31T00:43:34;13.50;90.00
68217;DHT22;55037;52.354;4.992;2022-10-31T00:46:02;13.50;90.00
68217;DHT22;55037;52.354;4.992;2022-10-31T00:48:29;13.40;90.00
68217;DHT22;55037;52.354;4.992;2022-10-31T00:50:57;13.40;90.00
68217;DHT22;55037;52.354;4.992;2022-10-31T00:53:24;13.40;90.00
68217;DHT22;55037;52.354;4.992;2022-10-31T00:55:52;13.40;90.00
68217;DHT22;55037;52.354;4.992;2022-10-31T00:58:19;13.40;90.00
68217;DHT22;55037;52.354;4.992;2022-10-31T01:00:48;13.30;90.10
68217;DHT22;55037;52.354;4.992;2022-10-31T01:03:30;13.30;90.10
68217;DHT22;55037;52.354;4.992;2022-10-31T01:06:07;13.40;90.20
68217;DHT22;55037;52.354;4.992;2022-10-31T01:08:36;13.30;90.20
68217;DHT22;55037;52.354;4.992;2022-10-31T01:11:15;13.30;90.30
68217;DHT22;55037;52.354;4.992;2022-10-31T01:13:44;13.30;90.20
68217;DHT22;55037;52.354;4.992;2022-10-31T01:16:13;13.30;90.20
68217;DHT22;55037;52.354;4.992;2022-10-31T01:18:41;13.30;90.30
68217;DHT22;55037;52.354;4.992;2022-10-31T01:23:40;13.20;90.30
68217;DHT22;55037;52.354;4.992;2022-10-31T01:26:19;13.20;90.40
68217;DHT22;55037;52.354;4.992;2022-10-31T01:28:56;13.10;90.20
68217;DHT22;55037;52.354;4.992;2022-10-31T01:31:26;13.10;90.50
68217;DHT22;55037;52.354;4.992;2022-10-31T01:33:54;13.10;90.60
68217;DHT22;55037;52.354;4.992;2022-10-31T01:36:30;13.10;91.10
68217;DHT22;55037;52.354;4.992;2022-10-31T01:39:00;13.00;90.70
68217;DHT22;55037;52.354;4.992;2022-10-31T01:41:31;13.00;90.70
68217;DHT22;55037;52.354;4.992;2022-10-31T01:46:48;12.90;90.80
68217;DHT22;55037;52.354;4.992;2022-10-31T01:52:02;12.80;91.00
68217;DHT22;55037;52.354;4.992;2022-10-31T01:54:34;12.80;91.10
68217;DHT22;55037;52.354;4.992;2022-10-31T01:57:03;12.70;91.20
68217;DHT22;55037;52.354;4.992;2022-10-31T01:59:33;12.70;91.30
68217;DHT22;55037;52.354;4.992;2022-10-31T02:02:02;12.70;91.20
68217;DHT22;55037;52.354;4.992;2022-10-31T02:04:30;12.70;91.30
68217;DHT22;55037;52.354;4.992;2022-10-31T02:07:03;12.60;91.30
68217;DHT22;55037;52.354;4.992;2022-10-31T02:09:31;12.60;91.40
68217;DHT22;55037;52.354;4.992;2022-10-31T02:12:02;12.60;91.50
68217;DHT22;55037;52.354;4.992;2022-10-31T02:14:31;12.60;91.60
68217;DHT22;55037;52.354;4.992;2022-10-31T02:16:58;12.60;92.00
68217;DHT22;55037;52.354;4.992;2022-10-31T02:33:44;12.50;91.80
68217;DHT22;55037;52.354;4.992;2022-10-31T02:36:25;12.50;91.90
68217;DHT22;55037;52.354;4.992;2022-10-31T02:47:15;12.40;92.00
68217;DHT22;55037;52.354;4.992;2022-10-31T02:52:28;12.40;92.10
68217;DHT22;55037;52.354;4.992;2022-10-31T02:58:01;12.40;92.10
68217;DHT22;55037;52.354;4.992;2022-10-31T03:00:47;12.40;92.00
68217;DHT22;55037;52.354;4.992;2022-10-31T03:03:34;12.40;92.00
68217;DHT22;55037;52.354;4.992;2022-10-31T03:09:03;12.40;92.10
68217;DHT22;55037;52.354;4.992;2022-10-31T03:11:44;12.30;92.20
68217;DHT22;55037;52.354;4.992;2022-10-31T03:14:28;12.40;92.20
68217;DHT22;55037;52.354;4.992;2022-10-31T03:17:02;12.40;92.30
68217;DHT22;55037;52.354;4.992;2022-10-31T03:19:41;12.30;92.10
68217;DHT22;55037;52.354;4.992;2022-10-31T03:22:22;12.30;92.40
68217;DHT22;55037;52.354;4.992;2022-10-31T03:24:52;12.40;92.40
68217;DHT22;55037;52.354;4.992;2022-10-31T03:27:28;12.40;92.30
68217;DHT22;55037;52.354;4.992;2022-10-31T03:30:02;12.30;92.30
68217;DHT22;55037;52.354;4.992;2022-10-31T03:32:47;12.40;92.30
68217;DHT22;55037;52.354;4.992;2022-10-31T03:35:18;12.30;92.30
68217;DHT22;55037;52.354;4.992;2022-10-31T03:37:47;12.30;92.30
68217;DHT22;55037;52.354;4.992;2022-10-31T03:40:16;12.30;92.40
68217;DHT22;55037;52.354;4.992;2022-10-31T03:42:53;12.30;92.40
68217;DHT22;55037;52.354;4.992;2022-10-31T03:45:27;12.30;92.50
68217;DHT22;55037;52.354;4.992;2022-10-31T03:47:57;12.30;92.10
68217;DHT22;55037;52.354;4.992;2022-10-31T03:50:40;12.30;92.40
68217;DHT22;55037;52.354;4.992;2022-10-31T03:53:16;12.30;92.40
68217;DHT22;55037;52.354;4.992;2022-10-31T03:55:50;12.30;92.50
68217;DHT22;55037;52.354;4.992;2022-10-31T03:58:23;12.30;92.10
68217;DHT22;55037;52.354;4.992;2022-10-31T04:00:54;12.30;92.40
68217;DHT22;55037;52.354;4.992;2022-10-31T04:03:26;12.20;92.50
68217;DHT22;55037;52.354;4.992;2022-10-31T04:05:58;12.20;92.50
68217;DHT22;55037;52.354;4.992;2022-10-31T04:08:30;12.30;92.60
68217;DHT22;55037;52.354;4.992;2022-10-31T04:11:00;12.30;92.50
68217;DHT22;55037;52.354;4.992;2022-10-31T04:13:30;12.30;92.60
68217;DHT22;55037;52.354;4.992;2022-10-31T04:16:04;12.20;92.70
68217;DHT22;55037;52.354;4.992;2022-10-31T04:18:32;12.20;92.30
68217;DHT22;55037;52.354;4.992;2022-10-31T04:21:07;12.30;92.60
68217;DHT22;55037;52.354;4.992;2022-10-31T04:23:36;12.20;92.60
68217;DHT22;55037;52.354;4.992;2022-10-31T04:26:13;12.20;92.60
68217;DHT22;55037;52.354;4.992;2022-10-31T04:28:43;12.20;92.70
68217;DHT22;55037;52.354;4.992;2022-10-31T04:31:12;12.20;92.70
68217;DHT22;55037;52.354;4.992;2022-10-31T04:33:40;12.20;92.70
68217;DHT22;55037;52.354;4.992;2022-10-31T04:36:08;12.20;92.60
68217;DHT22;55037;52.354;4.992;2022-10-31T04:38:35;12.20;92.60
68217;DHT22;55037;52.354;4.992;2022-10-31T04:41:09;12.20;92.50
68217;DHT22;55037;52.354;4.992;2022-10-31T04:43:49;12.10;92.60
68217;DHT22;55037;52.354;4.992;2022-10-31T04:46:17;12.10;92.60
68217;DHT22;55037;52.354;4.992;2022-10-31T04:48:47;12.10;92.40
68217;DHT22;55037;52.354;4.992;2022-10-31T04:51:14;12.10;92.80
68217;DHT22;55037;52.354;4.992;2022-10-31T04:53:41;12.10;92.80
68217;DHT22;55037;52.354;4.992;2022-10-31T04:56:27;12.10;92.80
68217;DHT22;55037;52.354;4.992;2022-10-31T04:59:00;12.10;92.80
68217;DHT22;55037;52.354;4.992;2022-10-31T05:01:33;12.20;92.80
68217;DHT22;55037;52.354;4.992;2022-10-31T05:04:01;12.10;92.80
68217;DHT22;55037;52.354;4.992;2022-10-31T05:06:30;12.10;92.80
68217;DHT22;55037;52.354;4.992;2022-10-31T05:08:57;12.10;92.80
68217;DHT22;55037;52.354;4.992;2022-10-31T05:11:25;12.00;92.80
68217;DHT22;55037;52.354;4.992;2022-10-31T05:13:55;12.00;92.90
68217;DHT22;55037;52.354;4.992;2022-10-31T05:16:46;12.00;93.00
68217;DHT22;55037;52.354;4.992;2022-10-31T05:19:31;12.00;92.60
68217;DHT22;55037;52.354;4.992;2022-10-31T05:22:17;12.10;93.00
68217;DHT22;55037;52.354;4.992;2022-10-31T05:24:44;12.00;93.10
68217;DHT22;55037;52.354;4.992;2022-10-31T05:27:12;12.00;93.20
68217;DHT22;55037;52.354;4.992;2022-10-31T05:29:40;12.00;93.20
68217;DHT22;55037;52.354;4.992;2022-10-31T05:32:08;12.00;93.20
68217;DHT22;55037;52.354;4.992;2022-10-31T05:34:58;12.00;93.20
68217;DHT22;55037;52.354;4.992;2022-10-31T05:37:51;11.90;93.00
68217;DHT22;55037;52.354;4.992;2022-10-31T05:40:20;11.90;93.30
68217;DHT22;55037;52.354;4.992;2022-10-31T05:42:51;12.00;93.40
68217;DHT22;55037;52.354;4.992;2022-10-31T05:45:22;12.00;93.30
68217;DHT22;55037;52.354;4.992;2022-10-31T05:47:57;12.00;93.30
68217;DHT22;55037;52.354;4.992;2022-10-31T05:50:51;12.00;93.30
68217;DHT22;55037;52.354;4.992;2022-10-31T05:53:19;12.00;93.30
68217;DHT22;55037;52.354;4.992;2022-10-31T05:55:46;12.00;93.30
68217;DHT22;55037;52.354;4.992;2022-10-31T05:58:18;11.90;93.10
68217;DHT22;55037;52.354;4.992;2022-10-31T06:01:05;11.90;93.40
68217;DHT22;55037;52.354;4.992;2022-10-31T06:03:33;12.10;93.40
68217;DHT22;55037;52.354;4.992;2022-10-31T06:06:02;11.90;93.80
68217;DHT22;55037;52.354;4.992;2022-10-31T06:08:36;11.90;93.20
68217;DHT22;55037;52.354;4.992;2022-10-31T06:11:11;11.90;93.50
68217;DHT22;55037;52.354;4.992;2022-10-31T06:13:57;11.90;93.50
68217;DHT22;55037;52.354;4.992;2022-10-31T06:16:31;12.00;93.60
68217;DHT22;55037;52.354;4.992;2022-10-31T06:19:10;11.90;93.50
68217;DHT22;55037;52.354;4.992;2022-10-31T06:21:37;12.00;93.50
68217;DHT22;55037;52.354;4.992;2022-10-31T06:24:04;12.00;93.50
68217;DHT22;55037;52.354;4.992;2022-10-31T06:26:55;12.00;93.50
68217;DHT22;55037;52.354;4.992;2022-10-31T06:29:22;12.00;93.50
68217;DHT22;55037;52.354;4.992;2022-10-31T06:32:03;12.00;93.50
68217;DHT22;55037;52.354;4.992;2022-10-31T06:34:34;11.90;93.40
68217;DHT22;55037;52.354;4.992;2022-10-31T06:37:01;12.00;93.50
68217;DHT22;55037;52.354;4.992;2022-10-31T06:39:29;11.90;93.10
68217;DHT22;55037;52.354;4.992;2022-10-31T06:41:57;12.00;93.60
68217;DHT22;55037;52.354;4.992;2022-10-31T06:44:26;12.00;93.50
68217;DHT22;55037;52.354;4.992;2022-10-31T06:46:53;12.00;93.50
68217;DHT22;55037;52.354;4.992;2022-10-31T06:49:35;12.00;93.50
68217;DHT22;55037;52.354;4.992;2022-10-31T06:52:08;12.00;93.40
68217;DHT22;55037;52.354;4.992;2022-10-31T06:54:36;12.10;93.40
68217;DHT22;55037;52.354;4.992;2022-10-31T06:57:03;12.10;93.90
68217;DHT22;55037;52.354;4.992;2022-10-31T06:59:31;12.10;93.40
68217;DHT22;55037;52.354;4.992;2022-10-31T07:02:11;12.10;93.30
68217;DHT22;55037;52.354;4.992;2022-10-31T07:04:41;12.10;93.30
68217;DHT22;55037;52.354;4.992;2022-10-31T07:07:11;12.20;93.30
68217;DHT22;55037;52.354;4.992;2022-10-31T07:09:39;12.20;92.90
68217;DHT22;55037;52.354;4.992;2022-10-31T07:12:08;12.30;93.30
68217;DHT22;55037;52.354;4.992;2022-10-31T07:14:39;12.30;93.10
68217;DHT22;55037;52.354;4.992;2022-10-31T07:17:06;12.40;93.00
68217;DHT22;55037;52.354;4.992;2022-10-31T07:19:38;12.40;92.90
68217;DHT22;55037;52.354;4.992;2022-10-31T07:22:05;12.40;92.90
68217;DHT22;55037;52.354;4.992;2022-10-31T07:24:33;12.40;93.20
68217;DHT22;55037;52.354;4.992;2022-10-31T07:27:19;12.50;93.10
68217;DHT22;55037;52.354;4.992;2022-10-31T07:29:47;12.60;93.20
68217;DHT22;55037;52.354;4.992;2022-10-31T07:32:16;12.80;93.10
68217;DHT22;55037;52.354;4.992;2022-10-31T07:34:50;12.90;92.90
68217;DHT22;55037;52.354;4.992;2022-10-31T07:37:22;13.00;92.70
68217;DHT22;55037;52.354;4.992;2022-10-31T07:39:55;13.20;92.30
68217;DHT22;55037;52.354;4.992;2022-10-31T07:42:23;13.30;92.00
68217;DHT22;55037;52.354;4.992;2022-10-31T07:44:50;13.40;91.70
68217;DHT22;55037;52.354;4.992;2022-10-31T07:47:55;13.50;91.80
68217;DHT22;55037;52.354;4.992;2022-10-31T07:50:43;13.70;92.10
68217;DHT22;55037;52.354;4.992;2022-10-31T07:53:29;14.40;91.40
68217;DHT22;55037;52.354;4.992;2022-10-31T07:56:09;15.80;89.80
68217;DHT22;55037;52.354;4.992;2022-10-31T07:58:37;17.80;81.30
68217;DHT22;55037;52.354;4.992;2022-10-31T08:01:04;19.00;73.90
68217;DHT22;55037;52.354;4.992;2022-10-31T08:03:39;19.50;71.00
68217;DHT22;55037;52.354;4.992;2022-10-31T08:06:09;20.00;67.70
68217;DHT22;55037;52.354;4.992;2022-10-31T08:08:55;19.90;66.20
68217;DHT22;55037;52.354;4.992;2022-10-31T08:11:22;19.20;65.30
68217;DHT22;55037;52.354;4.992;2022-10-31T08:13:49;18.20;68.50
68217;DHT22;55037;52.354;4.992;2022-10-31T08:16:17;17.40;71.40
68217;DHT22;55037;52.354;4.992;2022-10-31T08:18:55;16.60;73.70
68217;DHT22;55037;52.354;4.992;2022-10-31T08:21:23;16.30;75.00
68217;DHT22;55037;52.354;4.992;2022-10-31T08:23:50;15.90;76.90
68217;DHT22;55037;52.354;4.992;2022-10-31T08:26:20;15.60;78.70
68217;DHT22;55037;52.354;4.992;2022-10-31T08:28:49;15.20;79.80
68217;DHT22;55037;52.354;4.992;2022-10-31T08:31:20;15.50;80.60
68217;DHT22;55037;52.354;4.992;2022-10-31T08:33:47;15.50;79.70
68217;DHT22;55037;52.354;4.992;2022-10-31T08:36:33;15.40;80.10
68217;DHT22;55037;52.354;4.992;2022-10-31T08:39:08;15.10;80.80
68217;DHT22;55037;52.354;4.992;2022-10-31T08:41:35;15.00;82.30
68217;DHT22;55037;52.354;4.992;2022-10-31T08:44:03;15.10;83.30
68217;DHT22;55037;52.354;4.992;2022-10-31T08:46:31;15.50;83.00
68217;DHT22;55037;52.354;4.992;2022-10-31T08:48:58;15.90;81.20
68217;DHT22;55037;52.354;4.992;2022-10-31T08:51:26;16.10;80.70
68217;DHT22;55037;52.354;4.992;2022-10-31T08:53:55;16.30;80.60
68217;DHT22;55037;52.354;4.992;2022-10-31T08:56:41;16.80;79.20
68217;DHT22;55037;52.354;4.992;2022-10-31T08:59:31;17.30;78.20
68217;DHT22;55037;52.354;4.992;2022-10-31T09:02:15;17.90;74.90
68217;DHT22;55037;52.354;4.992;2022-10-31T09:04:43;19.30;72.40
68217;DHT22;55037;52.354;4.992;2022-10-31T09:07:10;20.70;65.50
68217;DHT22;55037;52.354;4.992;2022-10-31T09:09:53;21.40;62.90
68217;DHT22;55037;52.354;4.992;2022-10-31T09:12:22;22.40;58.40
68217;DHT22;55037;52.354;4.992;2022-10-31T09:15:10;23.20;56.50
68217;DHT22;55037;52.354;4.992;2022-10-31T09:17:47;25.20;49.20
68217;DHT22;55037;52.354;4.992;2022-10-31T09:20:27;25.70;44.60
68217;DHT22;55037;52.354;4.992;2022-10-31T09:22:59;24.40;45.50
68217;DHT22;55037;52.354;4.992;2022-10-31T09:25:28;23.00;50.50
68217;DHT22;55037;52.354;4.992;2022-10-31T09:28:17;23.70;52.60
68217;DHT22;55037;52.354;4.992;2022-10-31T09:30:50;25.90;45.80
68217;DHT22;55037;52.354;4.992;2022-10-31T09:33:34;27.10;42.10
68217;DHT22;55037;52.354;4.992;2022-10-31T09:36:21;28.20;39.50
68217;DHT22;55037;52.354;4.992;2022-10-31T09:38:48;28.70;38.60
68217;DHT22;55037;52.354;4.992;2022-10-31T09:41:54;28.40;37.30
68217;DHT22;55037;52.354;4.992;2022-10-31T09:47:33;27.50;38.70
68217;DHT22;55037;52.354;4.992;2022-10-31T09:51:03;26.10;40.60
68217;DHT22;55037;52.354;4.992;2022-10-31T09:53:54;24.90;43.40
68217;DHT22;55037;52.354;4.992;2022-10-31T09:56:25;23.60;46.70
68217;DHT22;55037;52.354;4.992;2022-10-31T09:58:58;22.50;50.50
68217;DHT22;55037;52.354;4.992;2022-10-31T10:01:47;21.90;53.50
68217;DHT22;55037;52.354;4.992;2022-10-31T10:04:38;21.40;57.00
68217;DHT22;55037;52.354;4.992;2022-10-31T10:10:34;21.50;57.00
68217;DHT22;55037;52.354;4.992;2022-10-31T10:15:58;21.60;57.20
68217;DHT22;55037;52.354;4.992;2022-10-31T10:19:07;21.30;58.50
68217;DHT22;55037;52.354;4.992;2022-10-31T10:30:11;21.20;61.40
68217;DHT22;55037;52.354;4.992;2022-10-31T10:32:54;21.80;59.70
68217;DHT22;55037;52.354;4.992;2022-10-31T10:35:33;22.10;58.10
68217;DHT22;55037;52.354;4.992;2022-10-31T10:40:37;22.00;58.50
68217;DHT22;55037;52.354;4.992;2022-10-31T10:46:13;22.20;58.60
68217;DHT22;55037;52.354;4.992;2022-10-31T10:49:44;22.50;57.80
68217;DHT22;55037;52.354;4.992;2022-10-31T10:55:32;22.10;56.70
68217;DHT22;55037;52.354;4.992;2022-10-31T10:58:07;21.60;56.00
68217;DHT22;55037;52.354;4.992;2022-10-31T11:00:45;21.30;57.90
68217;DHT22;55037;52.354;4.992;2022-10-31T11:03:18;21.30;57.70
68217;DHT22;55037;52.354;4.992;2022-10-31T11:05:53;21.70;57.70
68217;DHT22;55037;52.354;4.992;2022-10-31T11:08:34;22.20;55.60
68217;DHT22;55037;52.354;4.992;2022-10-31T11:13:30;22.00;54.40
68217;DHT22;55037;52.354;4.992;2022-10-31T11:16:07;22.20;56.60
68217;DHT22;55037;52.354;4.992;2022-10-31T11:18:44;25.30;51.20
68217;DHT22;55037;52.354;4.992;2022-10-31T11:21:25;30.70;38.20
68217;DHT22;55037;52.354;4.992;2022-10-31T11:26:30;32.50;30.00
68217;DHT22;55037;52.354;4.992;2022-10-31T11:28:58;31.20;30.80
68217;DHT22;55037;52.354;4.992;2022-10-31T11:31:26;29.20;33.80
68217;DHT22;55037;52.354;4.992;2022-10-31T11:33:59;27.40;37.20
68217;DHT22;55037;52.354;4.992;2022-10-31T11:36:30;25.80;40.50
68217;DHT22;55037;52.354;4.992;2022-10-31T11:38:59;24.70;43.20
68217;DHT22;55037;52.354;4.992;2022-10-31T11:41:32;24.00;45.40
68217;DHT22;55037;52.354;4.992;2022-10-31T11:44:02;23.50;47.00
68217;DHT22;55037;52.354;4.992;2022-10-31T11:46:39;23.20;48.60
68217;DHT22;55037;52.354;4.992;2022-10-31T11:49:20;23.00;50.00
68217;DHT22;55037;52.354;4.992;2022-10-31T11:51:54;23.80;49.00
68217;DHT22;55037;52.354;4.992;2022-10-31T11:54:32;24.60;45.70
68217;DHT22;55037;52.354;4.992;2022-10-31T11:57:00;24.80;45.60
68217;DHT22;55037;52.354;4.992;2022-10-31T11:59:31;25.40;44.90
68217;DHT22;55037;52.354;4.992;2022-10-31T12:02:00;26.80;42.50
68217;DHT22;55037;52.354;4.992;2022-10-31T12:04:45;27.80;39.30
68217;DHT22;55037;52.354;4.992;2022-10-31T12:07:13;28.40;38.60
68217;DHT22;55037;52.354;4.992;2022-10-31T12:09:40;29.00;36.50
68217;DHT22;55037;52.354;4.992;2022-10-31T12:12:17;28.50;37.00
68217;DHT22;55037;52.354;4.992;2022-10-31T12:25:45;29.50;34.60
68217;DHT22;55037;52.354;4.992;2022-10-31T12:28:44;27.80;37.80
68217;DHT22;55037;52.354;4.992;2022-10-31T12:31:43;26.50;41.20
68217;DHT22;55037;52.354;4.992;2022-10-31T12:34:57;25.90;43.50
68217;DHT22;55037;52.354;4.992;2022-10-31T12:37:48;25.80;42.70
68217;DHT22;55037;52.354;4.992;2022-10-31T12:43:13;25.00;45.30
68217;DHT22;55037;52.354;4.992;2022-10-31T12:48:41;24.90;46.80
68217;DHT22;55037;52.354;4.992;2022-10-31T12:59:20;25.40;43.80
68217;DHT22;55037;52.354;4.992;2022-10-31T13:05:10;23.60;48.50
68217;DHT22;55037;52.354;4.992;2022-10-31T13:07:53;23.00;52.00
68217;DHT22;55037;52.354;4.992;2022-10-31T13:10:39;22.80;53.50
68217;DHT22;55037;52.354;4.992;2022-10-31T13:16:07;22.90;53.60
68217;DHT22;55037;52.354;4.992;2022-10-31T13:24:36;23.70;51.30
68217;DHT22;55037;52.354;4.992;2022-10-31T13:27:15;23.30;51.70
68217;DHT22;55037;52.354;4.992;2022-10-31T13:30:18;22.70;53.20
68217;DHT22;55037;52.354;4.992;2022-10-31T13:32:54;22.00;56.10
68217;DHT22;55037;52.354;4.992;2022-10-31T13:35:50;21.40;58.70
68217;DHT22;55037;52.354;4.992;2022-10-31T13:38:29;21.00;60.30
68217;DHT22;55037;52.354;4.992;2022-10-31T13:44:28;20.40;63.50
68217;DHT22;55037;52.354;4.992;2022-10-31T13:47:27;20.10;65.00
68217;DHT22;55037;52.354;4.992;2022-10-31T13:50:06;20.00;65.60
68217;DHT22;55037;52.354;4.992;2022-10-31T13:52:45;19.80;66.20
68217;DHT22;55037;52.354;4.992;2022-10-31T13:55:43;19.80;66.80
68217;DHT22;55037;52.354;4.992;2022-10-31T13:58:28;19.70;67.20
68217;DHT22;55037;52.354;4.992;2022-10-31T14:03:39;19.40;68.10
68217;DHT22;55037;52.354;4.992;2022-10-31T14:06:38;19.40;68.60
68217;DHT22;55037;52.354;4.992;2022-10-31T14:09:19;19.30;68.30
68217;DHT22;55037;52.354;4.992;2022-10-31T14:11:48;19.20;68.70
68217;DHT22;55037;52.354;4.992;2022-10-31T14:14:17;19.10;68.90
68217;DHT22;55037;52.354;4.992;2022-10-31T14:16:46;19.00;69.30
68217;DHT22;55037;52.354;4.992;2022-10-31T14:19:22;19.00;69.60
68217;DHT22;55037;52.354;4.992;2022-10-31T14:21:50;19.00;69.50
68217;DHT22;55037;52.354;4.992;2022-10-31T14:26:57;19.00;69.40
68217;DHT22;55037;52.354;4.992;2022-10-31T14:29:29;19.00;69.70
68217;DHT22;55037;52.354;4.992;2022-10-31T14:32:22;18.90;69.90
68217;DHT22;55037;52.354;4.992;2022-10-31T14:40:17;19.10;70.30
68217;DHT22;55037;52.354;4.992;2022-10-31T14:48:20;19.10;70.30
68217;DHT22;55037;52.354;4.992;2022-10-31T14:50:52;19.10;70.70
68217;DHT22;55037;52.354;4.992;2022-10-31T14:53:31;19.00;71.00
68217;DHT22;55037;52.354;4.992;2022-10-31T14:56:00;18.90;71.20
68217;DHT22;55037;52.354;4.992;2022-10-31T14:58:44;18.90;71.50
68217;DHT22;55037;52.354;4.992;2022-10-31T15:01:26;18.90;71.60
68217;DHT22;55037;52.354;4.992;2022-10-31T15:04:05;18.80;72.00
68217;DHT22;55037;52.354;4.992;2022-10-31T15:09:35;18.60;72.70
68217;DHT22;55037;52.354;4.992;2022-10-31T15:12:23;18.60;73.10
68217;DHT22;55037;52.354;4.992;2022-10-31T15:14:50;18.50;73.60
68217;DHT22;55037;52.354;4.992;2022-10-31T15:17:18;18.50;73.90
68217;DHT22;55037;52.354;4.992;2022-10-31T15:19:46;18.40;74.30
68217;DHT22;55037;52.354;4.992;2022-10-31T15:22:16;18.40;74.80
68217;DHT22;55037;52.354;4.992;2022-10-31T15:24:45;18.30;75.00
68217;DHT22;55037;52.354;4.992;2022-10-31T15:27:16;18.30;75.20
68217;DHT22;55037;52.354;4.992;2022-10-31T15:29:49;18.20;75.50
68217;DHT22;55037;52.354;4.992;2022-10-31T15:32:25;18.10;75.80
68217;DHT22;55037;52.354;4.992;2022-10-31T15:34:54;18.10;76.20
68217;DHT22;55037;52.354;4.992;2022-10-31T15:37:24;18.00;77.20
68217;DHT22;55037;52.354;4.992;2022-10-31T15:39:52;18.00;76.00
68217;DHT22;55037;52.354;4.992;2022-10-31T15:42:43;17.90;77.10
68217;DHT22;55037;52.354;4.992;2022-10-31T15:47:45;17.80;77.70
68217;DHT22;55037;52.354;4.992;2022-10-31T15:50:20;17.80;78.00
68217;DHT22;55037;52.354;4.992;2022-10-31T15:52:49;17.70;78.20
68217;DHT22;55037;52.354;4.992;2022-10-31T15:55:29;17.70;78.40
68217;DHT22;55037;52.354;4.992;2022-10-31T15:57:59;17.50;78.10
68217;DHT22;55037;52.354;4.992;2022-10-31T16:00:33;17.50;78.90
68217;DHT22;55037;52.354;4.992;2022-10-31T16:03:21;17.50;79.10
68217;DHT22;55037;52.354;4.992;2022-10-31T16:05:58;17.50;79.40
68217;DHT22;55037;52.354;4.992;2022-10-31T16:08:33;17.40;79.50
68217;DHT22;55037;52.354;4.992;2022-10-31T16:13:40;17.40;79.80
68217;DHT22;55037;52.354;4.992;2022-10-31T16:16:13;17.40;80.10
68217;DHT22;55037;52.354;4.992;2022-10-31T16:19:02;17.40;80.40
68217;DHT22;55037;52.354;4.992;2022-10-31T16:21:33;17.40;80.50
68217;DHT22;55037;52.354;4.992;2022-10-31T16:24:04;17.30;80.70
68217;DHT22;55037;52.354;4.992;2022-10-31T16:26:33;17.30;80.90
68217;DHT22;55037;52.354;4.992;2022-10-31T16:29:00;17.30;81.00
68217;DHT22;55037;52.354;4.992;2022-10-31T16:31:39;17.30;81.20
68217;DHT22;55037;52.354;4.992;2022-10-31T16:34:28;17.20;81.30
68217;DHT22;55037;52.354;4.992;2022-10-31T16:36:55;17.20;81.40
68217;DHT22;55037;52.354;4.992;2022-10-31T16:39:22;17.20;81.00
68217;DHT22;55037;52.354;4.992;2022-10-31T16:41:52;17.10;81.80
68217;DHT22;55037;52.354;4.992;2022-10-31T16:44:23;17.10;81.90
68217;DHT22;55037;52.354;4.992;2022-10-31T16:47:14;17.10;82.10
68217;DHT22;55037;52.354;4.992;2022-10-31T16:49:43;17.10;82.30
68217;DHT22;55037;52.354;4.992;2022-10-31T16:52:10;16.60;82.10
68217;DHT22;55037;52.354;4.992;2022-10-31T16:54:37;17.10;82.60
68217;DHT22;55037;52.354;4.992;2022-10-31T16:57:06;17.00;82.50
68217;DHT22;55037;52.354;4.992;2022-10-31T16:59:36;17.00;82.50
68217;DHT22;55037;52.354;4.992;2022-10-31T17:02:03;17.00;82.60
68217;DHT22;55037;52.354;4.992;2022-10-31T17:04:31;17.00;82.80
68217;DHT22;55037;52.354;4.992;2022-10-31T17:06:58;18.30;83.40
68217;DHT22;55037;52.354;4.992;2022-10-31T17:09:26;17.00;82.80
68217;DHT22;55037;52.354;4.992;2022-10-31T17:11:53;17.00;82.70
68217;DHT22;55037;52.354;4.992;2022-10-31T17:14:21;17.00;82.70
68217;DHT22;55037;52.354;4.992;2022-10-31T17:16:48;17.00;82.70
68217;DHT22;55037;52.354;4.992;2022-10-31T17:19:15;17.10;82.80
68217;DHT22;55037;52.354;4.992;2022-10-31T17:21:43;17.00;82.70
68217;DHT22;55037;52.354;4.992;2022-10-31T17:24:14;15.50;81.90
68217;DHT22;55037;52.354;4.992;2022-10-31T17:26:42;17.00;82.80
68217;DHT22;55037;52.354;4.992;2022-10-31T17:29:09;17.00;82.00
68217;DHT22;55037;52.354;4.992;2022-10-31T17:31:36;17.00;82.80
68217;DHT22;55037;52.354;4.992;2022-10-31T17:34:05;16.90;82.90
68217;DHT22;55037;52.354;4.992;2022-10-31T17:36:33;16.90;83.10
68217;DHT22;55037;52.354;4.992;2022-10-31T17:39:02;16.90;82.30
68217;DHT22;55037;52.354;4.992;2022-10-31T17:41:31;16.90;83.20
68217;DHT22;55037;52.354;4.992;2022-10-31T17:43:58;16.90;83.20
68217;DHT22;55037;52.354;4.992;2022-10-31T17:46:26;16.80;83.30
68217;DHT22;55037;52.354;4.992;2022-10-31T17:48:54;16.70;82.80
68217;DHT22;55037;52.354;4.992;2022-10-31T17:51:21;16.70;83.70
68217;DHT22;55037;52.354;4.992;2022-10-31T17:53:49;17.10;84.00
68217;DHT22;55037;52.354;4.992;2022-10-31T17:56:16;16.60;84.10
68217;DHT22;55037;52.354;4.992;2022-10-31T17:58:43;16.60;84.30
68217;DHT22;55037;52.354;4.992;2022-10-31T18:01:12;16.50;84.40
68217;DHT22;55037;52.354;4.992;2022-10-31T18:03:40;16.50;84.70
68217;DHT22;55037;52.354;4.992;2022-10-31T18:06:08;16.40;84.90
68217;DHT22;55037;52.354;4.992;2022-10-31T18:08:39;16.40;84.50
68217;DHT22;55037;52.354;4.992;2022-10-31T18:11:12;16.40;85.40
68217;DHT22;55037;52.354;4.992;2022-10-31T18:13:40;16.30;85.40
68217;DHT22;55037;52.354;4.992;2022-10-31T18:16:16;16.30;85.70
68217;DHT22;55037;52.354;4.992;2022-10-31T18:18:49;16.30;86.00
68217;DHT22;55037;52.354;4.992;2022-10-31T18:21:17;16.20;86.10
68217;DHT22;55037;52.354;4.992;2022-10-31T18:23:44;16.20;86.40
68217;DHT22;55037;52.354;4.992;2022-10-31T18:26:11;16.20;87.50
68217;DHT22;55037;52.354;4.992;2022-10-31T18:28:39;16.20;86.60